sensor_id;sensor_type;location;lat;lon;timestamp;pressure;altitude;pressure_sealevel;temperature;humidity
19890;BME280;10107;51.198;6.824;2023-02-17T00:02:55;-21577.22;;;9.83;100.00
19890;BME280;10107;51.198;6.824;2023-02-17T00:06:57;-21576.56;;;9.80;100.00
19890;BME280;10107;51.198;6.824;2023-02-17T00:10:59;-21576.16;;;9.79;100.00
19890;BME280;10107;51.198;6.824;2023-02-17T00:15:01;-21576.28;;;9.79;100.00
19890;BME280;10107;51.198;6.824;2023-02-17T00:19:04;-21577.09;;;9.82;100.00
19890;BME280;10107;51.198;6.824;2023-02-17T00:23:22;-21577.09;;;9.82;100.00
19890;BME280;10107;51.198;6.824;2023-02-17T00:27:24;-21577.63;;;9.84;100.00
19890;BME280;10107;51.198;6.824;2023-02-17T00:31:26;-21578.28;;;9.87;100.00
19890;BME280;10107;51.198;6.824;2023-02-17T00:35:30;-21577.63;;;9.84;100.00
19890;BME280;10107;51.198;6.824;2023-02-17T00:39:32;-21577.47;;;9.84;100.00
19890;BME280;10107;51.198;6.824;2023-02-17T00:43:34;-21578.00;;;9.86;100.00
19890;BME280;10107;51.198;6.824;2023-02-17T00:47:36;-21577.22;;;9.83;100.00
19890;BME280;10107;51.198;6.824;2023-02-17T00:51:39;-21578.00;;;9.86;100.00
19890;BME280;10107;51.198;6.824;2023-02-17T00:55:40;-21577.47;;;9.84;100.00
19890;BME280;10107;51.198;6.824;2023-02-17T00:59:42;-21577.47;;;9.84;100.00
19890;BME280;10107;51.198;6.824;2023-02-17T01:03:44;-21577.63;;;9.84;100.00
19890;BME280;10107;51.198;6.824;2023-02-17T01:07:49;-21576.81;;;9.81;100.00
19890;BME280;10107;51.198;6.824;2023-02-17T01:11:51;-21575.75;;;9.77;100.00
19890;BME280;10107;51.198;6.824;2023-02-17T01:15:53;-21576.69;;;9.81;100.00
19890;BME280;10107;51.198;6.824;2023-02-17T01:19:56;-21576.16;;;9.79;100.00
19890;BME280;10107;51.198;6.824;2023-02-17T01:24:00;-21575.75;;;9.77;100.00
19890;BME280;10107;51.198;6.824;2023-02-17T01:28:03;-21575.75;;;9.77;100.00
19890;BME280;10107;51.198;6.824;2023-02-17T01:32:04;-21575.75;;;9.77;100.00
19890;BME280;10107;51.198;6.824;2023-02-17T01:36:08;-21575.34;;;9.76;100.00
19890;BME280;10107;51.198;6.824;2023-02-17T01:40:12;-21575.09;;;9.75;100.00
19890;BME280;10107;51.198;6.824;2023-02-17T01:44:17;-21575.22;;;9.75;100.00
19890;BME280;10107;51.198;6.824;2023-02-17T01:48:22;-21576.03;;;9.78;100.00
19890;BME280;10107;51.198;6.824;2023-02-17T01:52:25;-21574.97;;;9.74;100.00
19890;BME280;10107;51.198;6.824;2023-02-17T01:56:30;-21575.09;;;9.75;100.00
19890;BME280;10107;51.198;6.824;2023-02-17T02:00:34;-21575.09;;;9.75;100.00
19890;BME280;10107;51.198;6.824;2023-02-17T02:04:38;-21575.09;;;9.75;100.00
19890;BME280;10107;51.198;6.824;2023-02-17T02:08:49;-21575.63;;;9.77;100.00
19890;BME280;10107;51.198;6.824;2023-02-17T02:12:54;-21575.34;;;9.76;100.00
19890;BME280;10107;51.198;6.824;2023-02-17T02:17:04;-21576.16;;;9.79;100.00
19890;BME280;10107;51.198;6.824;2023-02-17T02:26:04;-21576.41;;;9.80;100.00
19890;BME280;10107;51.198;6.824;2023-02-17T02:34:45;-21577.63;;;9.84;100.00
19890;BME280;10107;51.198;6.824;2023-02-17T02:38:52;-21578.16;;;9.86;100.00
19890;BME280;10107;51.198;6.824;2023-02-17T02:43:01;-21579.06;;;9.90;100.00
19890;BME280;10107;51.198;6.824;2023-02-17T02:47:04;-21579.59;;;9.92;100.00
19890;BME280;10107;51.198;6.824;2023-02-17T02:51:20;-21579.34;;;9.91;100.00
19890;BME280;10107;51.198;6.824;2023-02-17T02:55:32;-21579.72;;;9.93;100.00
19890;BME280;10107;51.198;6.824;2023-02-17T02:59:45;-21580.94;;;9.97;100.00
19890;BME280;10107;51.198;6.824;2023-02-17T03:03:55;-21581.47;;;9.99;100.00
19890;BME280;10107;51.198;6.824;2023-02-17T03:08:08;-21581.72;;;10.00;100.00
19890;BME280;10107;51.198;6.824;2023-02-17T03:12:11;-21580.41;;;9.95;100.00
19890;BME280;10107;51.198;6.824;2023-02-17T03:16:12;-21581.72;;;10.00;100.00
19890;BME280;10107;51.198;6.824;2023-02-17T03:20:14;-21581.72;;;10.00;100.00
19890;BME280;10107;51.198;6.824;2023-02-17T03:24:18;-21581.84;;;10.01;100.00
19890;BME280;10107;51.198;6.824;2023-02-17T03:28:20;-21583.44;;;10.07;100.00
19890;BME280;10107;51.198;6.824;2023-02-17T03:32:22;-21583.06;;;10.05;100.00
19890;BME280;10107;51.198;6.824;2023-02-17T03:36:24;-21583.06;;;10.05;100.00
19890;BME280;10107;51.198;6.824;2023-02-17T03:40:27;-21583.72;;;10.08;100.00
19890;BME280;10107;51.198;6.824;2023-02-17T03:44:28;-21583.31;;;10.06;100.00
19890;BME280;10107;51.198;6.824;2023-02-17T03:48:30;-21582.78;;;10.04;100.00
19890;BME280;10107;51.198;6.824;2023-02-17T03:52:32;-21582.25;;;10.02;100.00
19890;BME280;10107;51.198;6.824;2023-02-17T03:56:35;-21582.25;;;10.02;100.00
19890;BME280;10107;51.198;6.824;2023-02-17T04:00:37;-21582.38;;;10.03;100.00
19890;BME280;10107;51.198;6.824;2023-02-17T04:04:38;-21582.53;;;10.03;100.00
19890;BME280;10107;51.198;6.824;2023-02-17T04:08:40;-21583.59;;;10.07;100.00
19890;BME280;10107;51.198;6.824;2023-02-17T04:12:43;-21584.25;;;10.10;100.00
19890;BME280;10107;51.198;6.824;2023-02-17T04:16:45;-21585.03;;;10.13;100.00
19890;BME280;10107;51.198;6.824;2023-02-17T04:20:48;-21585.69;;;10.16;100.00
19890;BME280;10107;51.198;6.824;2023-02-17T04:24:50;-21585.31;;;10.14;100.00
19890;BME280;10107;51.198;6.824;2023-02-17T04:28:53;-21585.69;;;10.16;100.00
19890;BME280;10107;51.198;6.824;2023-02-17T04:32:55;-21586.22;;;10.18;100.00
19890;BME280;10107;51.198;6.824;2023-02-17T04:36:57;-21586.09;;;10.17;100.00
19890;BME280;10107;51.198;6.824;2023-02-17T04:40:59;-21585.84;;;10.16;100.00
19890;BME280;10107;51.198;6.824;2023-02-17T04:45:04;-21585.97;;;10.17;100.00
19890;BME280;10107;51.198;6.824;2023-02-17T04:49:06;-21585.16;;;10.14;100.00
19890;BME280;10107;51.198;6.824;2023-02-17T04:53:07;-21585.69;;;10.16;100.00
19890;BME280;10107;51.198;6.824;2023-02-17T04:57:09;-21585.44;;;10.15;100.00
19890;BME280;10107;51.198;6.824;2023-02-17T05:01:12;-21585.31;;;10.14;100.00
19890;BME280;10107;51.198;6.824;2023-02-17T05:05:14;-21585.16;;;10.14;100.00
19890;BME280;10107;51.198;6.824;2023-02-17T05:09:18;-21585.31;;;10.14;100.00
19890;BME280;10107;51.198;6.824;2023-02-17T05:13:20;-21586.09;;;10.17;100.00
19890;BME280;10107;51.198;6.824;2023-02-17T05:17:23;-21586.09;;;10.17;100.00
19890;BME280;10107;51.198;6.824;2023-02-17T05:21:25;-21585.97;;;10.17;100.00
19890;BME280;10107;51.198;6.824;2023-02-17T05:25:26;-21586.38;;;10.18;100.00
19890;BME280;10107;51.198;6.824;2023-02-17T05:29:28;-21586.88;;;10.20;100.00
19890;BME280;10107;51.198;6.824;2023-02-17T05:33:31;-21587.69;;;10.23;100.00
19890;BME280;10107;51.198;6.824;2023-02-17T05:37:33;-21586.75;;;10.20;100.00
19890;BME280;10107;51.198;6.824;2023-02-17T05:41:34;-21587.03;;;10.21;100.00
19890;BME280;10107;51.198;6.824;2023-02-17T05:45:36;-21586.88;;;10.20;100.00
19890;BME280;10107;51.198;6.824;2023-02-17T05:49:39;-21587.16;;;10.21;100.00
19890;BME280;10107;51.198;6.824;2023-02-17T05:53:40;-21587.16;;;10.21;100.00
19890;BME280;10107;51.198;6.824;2023-02-17T05:57:42;-21586.38;;;10.18;100.00
19890;BME280;10107;51.198;6.824;2023-02-17T06:01:44;-21587.28;;;10.22;100.00
19890;BME280;10107;51.198;6.824;2023-02-17T06:05:47;-21587.41;;;10.22;100.00
19890;BME280;10107;51.198;6.824;2023-02-17T06:09:49;-21587.81;;;10.24;100.00
19890;BME280;10107;51.198;6.824;2023-02-17T06:13:50;-21587.69;;;10.23;100.00
19890;BME280;10107;51.198;6.824;2023-02-17T06:17:52;-21587.56;;;10.23;100.00
19890;BME280;10107;51.198;6.824;2023-02-17T06:21:55;-21588.34;;;10.26;100.00
19890;BME280;10107;51.198;6.824;2023-02-17T06:25:57;-21588.75;;;10.27;100.00
19890;BME280;10107;51.198;6.824;2023-02-17T06:29:58;-21588.47;;;10.26;100.00
19890;BME280;10107;51.198;6.824;2023-02-17T06:34:00;-21588.88;;;10.28;100.00
19890;BME280;10107;51.198;6.824;2023-02-17T06:38:03;-21589.16;;;10.29;100.00
19890;BME280;10107;51.198;6.824;2023-02-17T06:42:05;-21588.88;;;10.28;100.00
19890;BME280;10107;51.198;6.824;2023-02-17T06:46:06;-21589.16;;;10.29;100.00
19890;BME280;10107;51.198;6.824;2023-02-17T06:50:09;-21588.75;;;10.27;100.00
19890;BME280;10107;51.198;6.824;2023-02-17T06:54:12;-21589.94;;;10.32;100.00
19890;BME280;10107;51.198;6.824;2023-02-17T06:58:14;-21591.53;;;10.38;100.00
19890;BME280;10107;51.198;6.824;2023-02-17T07:02:16;-21590.88;;;10.36;100.00
19890;BME280;10107;51.198;6.824;2023-02-17T07:06:17;-21589.41;;;10.30;100.00
19890;BME280;10107;51.198;6.824;2023-02-17T07:10:20;-21588.22;;;10.25;100.00
19890;BME280;10107;51.198;6.824;2023-02-17T07:14:22;-21587.81;;;10.24;100.00
19890;BME280;10107;51.198;6.824;2023-02-17T07:18:24;-21587.56;;;10.23;100.00
19890;BME280;10107;51.198;6.824;2023-02-17T07:22:25;-21588.75;;;10.27;100.00
19890;BME280;10107;51.198;6.824;2023-02-17T07:26:28;-21589.00;;;10.28;100.00
19890;BME280;10107;51.198;6.824;2023-02-17T07:30:30;-21589.53;;;10.30;100.00
19890;BME280;10107;51.198;6.824;2023-02-17T07:34:32;-21590.06;;;10.33;100.00
19890;BME280;10107;51.198;6.824;2023-02-17T07:38:34;-21591.81;;;10.39;100.00
19890;BME280;10107;51.198;6.824;2023-02-17T07:42:37;-21593.38;;;10.45;100.00
19890;BME280;10107;51.198;6.824;2023-02-17T07:46:39;-21594.59;;;10.50;100.00
19890;BME280;10107;51.198;6.824;2023-02-17T07:50:41;-21596.03;;;10.56;100.00
19890;BME280;10107;51.198;6.824;2023-02-17T07:54:42;-21597.75;;;10.62;100.00
19890;BME280;10107;51.198;6.824;2023-02-17T07:58:46;-21598.44;;;10.65;100.00
19890;BME280;10107;51.198;6.824;2023-02-17T08:02:47;-21599.22;;;10.68;100.00
19890;BME280;10107;51.198;6.824;2023-02-17T08:06:49;-21600.00;;;10.71;100.00
19890;BME280;10107;51.198;6.824;2023-02-17T08:10:51;-21600.41;;;10.73;100.00
19890;BME280;10107;51.198;6.824;2023-02-17T08:15:13;-21601.72;;;10.78;100.00
19890;BME280;10107;51.198;6.824;2023-02-17T08:19:14;-21602.66;;;10.81;100.00
19890;BME280;10107;51.198;6.824;2023-02-17T08:23:18;-21605.19;;;10.91;100.00
19890;BME280;10107;51.198;6.824;2023-02-17T08:27:20;-21606.09;;;10.95;100.00
19890;BME280;10107;51.198;6.824;2023-02-17T08:31:25;-21609.28;;;11.07;100.00
19890;BME280;10107;51.198;6.824;2023-02-17T08:35:27;-21611.13;;;11.14;100.00
19890;BME280;10107;51.198;6.824;2023-02-17T08:39:29;-21612.97;;;11.21;100.00
19890;BME280;10107;51.198;6.824;2023-02-17T08:43:31;-21616.28;;;11.34;100.00
19890;BME280;10107;51.198;6.824;2023-02-17T08:47:35;-21618.28;;;11.42;100.00
19890;BME280;10107;51.198;6.824;2023-02-17T08:51:37;-21624.75;;;11.67;100.00
19890;BME280;10107;51.198;6.824;2023-02-17T08:55:39;-21631.09;;;11.92;100.00
19890;BME280;10107;51.198;6.824;2023-02-17T08:59:41;-21632.31;;;11.96;100.00
19890;BME280;10107;51.198;6.824;2023-02-17T09:03:45;-21635.47;;;12.08;100.00
19890;BME280;10107;51.198;6.824;2023-02-17T09:07:47;-21636.94;;;12.14;100.00
19890;BME280;10107;51.198;6.824;2023-02-17T09:11:49;-21639.97;;;12.26;100.00
19890;BME280;10107;51.198;6.824;2023-02-17T09:15:50;-21641.69;;;12.33;100.00
19890;BME280;10107;51.198;6.824;2023-02-17T09:19:54;-21645.13;;;12.46;100.00
19890;BME280;10107;51.198;6.824;2023-02-17T09:23:56;-21649.34;;;12.62;100.00
19890;BME280;10107;51.198;6.824;2023-02-17T09:27:58;-21653.16;;;12.77;100.00
19890;BME280;10107;51.198;6.824;2023-02-17T09:31:59;-21653.81;;;12.80;100.00
19890;BME280;10107;51.198;6.824;2023-02-17T09:36:03;-21657.00;;;12.92;100.00
19890;BME280;10107;51.198;6.824;2023-02-17T09:40:05;-21664.78;;;13.22;100.00
19890;BME280;10107;51.198;6.824;2023-02-17T09:44:16;-21663.47;;;13.17;100.00
19890;BME280;10107;51.198;6.824;2023-02-17T09:48:22;-21664.25;;;13.20;100.00
19890;BME280;10107;51.198;6.824;2023-02-17T09:52:32;-21662.53;;;13.14;100.00
19890;BME280;10107;51.198;6.824;2023-02-17T09:56:37;-21666.63;;;13.30;100.00
19890;BME280;10107;51.198;6.824;2023-02-17T10:00:43;-21667.03;;;13.31;100.00
19890;BME280;10107;51.198;6.824;2023-02-17T10:04:47;-21669.00;;;13.39;100.00
19890;BME280;10107;51.198;6.824;2023-02-17T10:08:55;-21674.66;;;13.61;100.00
19890;BME280;10107;51.198;6.824;2023-02-17T10:13:01;-21672.16;;;13.51;100.00
19890;BME280;10107;51.198;6.824;2023-02-17T10:17:07;-21666.88;;;13.31;100.00
19890;BME280;10107;51.198;6.824;2023-02-17T10:21:14;-21669.41;;;13.40;100.00
19890;BME280;10107;51.198;6.824;2023-02-17T10:25:37;-21676.91;;;13.70;100.00
19890;BME280;10107;51.198;6.824;2023-02-17T10:29:49;-21686.00;;;14.05;100.00
19890;BME280;10107;51.198;6.824;2023-02-17T10:34:01;-21690.88;;;14.24;100.00
19890;BME280;10107;51.198;6.824;2023-02-17T10:38:14;-21690.47;;;14.22;100.00
19890;BME280;10107;51.198;6.824;2023-02-17T10:42:20;-21691.66;;;14.27;100.00
19890;BME280;10107;51.198;6.824;2023-02-17T10:46:26;-21688.25;;;14.14;100.00
19890;BME280;10107;51.198;6.824;2023-02-17T10:50:29;-21680.34;;;13.83;100.00
19890;BME280;10107;51.198;6.824;2023-02-17T10:54:34;-21676.00;;;13.66;100.00
19890;BME280;10107;51.198;6.824;2023-02-17T10:58:45;-21674.28;;;13.59;100.00
19890;BME280;10107;51.198;6.824;2023-02-17T11:02:49;-21674.81;;;13.61;100.00
19890;BME280;10107;51.198;6.824;2023-02-17T11:06:53;-21674.53;;;13.60;100.00
19890;BME280;10107;51.198;6.824;2023-02-17T11:11:00;-21680.88;;;13.85;100.00
19890;BME280;10107;51.198;6.824;2023-02-17T11:15:14;-21687.97;;;14.13;100.00
19890;BME280;10107;51.198;6.824;2023-02-17T11:19:21;-21692.31;;;14.30;100.00
19890;BME280;10107;51.198;6.824;2023-02-17T11:23:24;-21698.78;;;14.55;100.00
19890;BME280;10107;51.198;6.824;2023-02-17T11:27:25;-21703.13;;;14.72;100.00
19890;BME280;10107;51.198;6.824;2023-02-17T11:31:30;-21706.16;;;14.83;99.72
19890;BME280;10107;51.198;6.824;2023-02-17T11:35:45;-21712.72;;;15.09;98.33
19890;BME280;10107;51.198;6.824;2023-02-17T11:39:50;-21724.16;;;15.54;94.50
19890;BME280;10107;51.198;6.824;2023-02-17T11:43:55;-21730.47;;;15.78;93.03
19890;BME280;10107;51.198;6.824;2023-02-17T11:48:13;-21726.50;;;15.63;92.64
19890;BME280;10107;51.198;6.824;2023-02-17T11:52:29;-21719.03;;;15.34;94.12
19890;BME280;10107;51.198;6.824;2023-02-17T11:56:36;-21713.25;;;15.11;94.86
19890;BME280;10107;51.198;6.824;2023-02-17T12:00:45;-21713.38;;;15.12;95.21
19890;BME280;10107;51.198;6.824;2023-02-17T12:05:01;-21707.97;;;14.91;96.19
19890;BME280;10107;51.198;6.824;2023-02-17T12:09:14;-21696.00;;;14.44;99.17
19890;BME280;10107;51.198;6.824;2023-02-17T12:13:28;-21686.78;;;14.08;100.00
19890;BME280;10107;51.198;6.824;2023-02-17T12:17:39;-21688.25;;;14.14;100.00
19890;BME280;10107;51.198;6.824;2023-02-17T12:21:53;-21691.41;;;14.26;100.00
19890;BME280;10107;51.198;6.824;2023-02-17T12:26:03;-21693.13;;;14.33;100.00
19890;BME280;10107;51.198;6.824;2023-02-17T12:30:26;-21692.06;;;14.29;100.00
19890;BME280;10107;51.198;6.824;2023-02-17T12:34:35;-21699.81;;;14.59;100.00
19890;BME280;10107;51.198;6.824;2023-02-17T12:38:42;-21713.78;;;15.13;98.08
19890;BME280;10107;51.198;6.824;2023-02-17T12:42:51;-21719.94;;;15.37;96.18
19890;BME280;10107;51.198;6.824;2023-02-17T12:46:56;-21714.44;;;15.16;96.96
19890;BME280;10107;51.198;6.824;2023-02-17T12:51:05;-21717.31;;;15.27;95.45
19890;BME280;10107;51.198;6.824;2023-02-17T12:55:15;-21725.88;;;15.60;94.12
19890;BME280;10107;51.198;6.824;2023-02-17T12:59:20;-21729.41;;;15.74;92.30
19890;BME280;10107;51.198;6.824;2023-02-17T13:03:23;-21724.81;;;15.56;92.20
19890;BME280;10107;51.198;6.824;2023-02-17T13:07:37;-21716.28;;;15.23;94.36
19890;BME280;10107;51.198;6.824;2023-02-17T13:11:42;-21711.13;;;15.03;96.28
19890;BME280;10107;51.198;6.824;2023-02-17T13:15:45;-21709.03;;;14.95;96.92
19890;BME280;10107;51.198;6.824;2023-02-17T13:19:47;-21712.84;;;15.10;96.91
19890;BME280;10107;51.198;6.824;2023-02-17T13:23:58;-21713.63;;;15.13;96.80
19890;BME280;10107;51.198;6.824;2023-02-17T13:28:29;-21711.81;;;15.05;97.32
19890;BME280;10107;51.198;6.824;2023-02-17T13:32:34;-21708.91;;;14.94;97.09
19890;BME280;10107;51.198;6.824;2023-02-17T13:36:36;-21703.25;;;14.72;98.17
19890;BME280;10107;51.198;6.824;2023-02-17T13:40:39;-21697.59;;;14.50;99.83
19890;BME280;10107;51.198;6.824;2023-02-17T13:44:43;-21697.19;;;14.49;100.00
19890;BME280;10107;51.198;6.824;2023-02-17T13:48:57;-21698.50;;;14.54;99.78
19890;BME280;10107;51.198;6.824;2023-02-17T13:53:01;-21699.44;;;14.57;98.37
19890;BME280;10107;51.198;6.824;2023-02-17T13:57:03;-21701.28;;;14.64;98.33
19890;BME280;10107;51.198;6.824;2023-02-17T14:01:11;-21701.53;;;14.65;97.89
19890;BME280;10107;51.198;6.824;2023-02-17T14:05:19;-21699.44;;;14.57;97.88
19890;BME280;10107;51.198;6.824;2023-02-17T14:09:25;-21700.09;;;14.60;98.42
19890;BME280;10107;51.198;6.824;2023-02-17T14:13:28;-21699.31;;;14.57;97.79
19890;BME280;10107;51.198;6.824;2023-02-17T14:17:31;-21698.50;;;14.54;97.48
19890;BME280;10107;51.198;6.824;2023-02-17T14:21:34;-21697.72;;;14.51;97.82
19890;BME280;10107;51.198;6.824;2023-02-17T14:25:38;-21695.34;;;14.41;98.72
19890;BME280;10107;51.198;6.824;2023-02-17T14:29:40;-21690.47;;;14.22;97.70
19890;BME280;10107;51.198;6.824;2023-02-17T14:33:51;-21687.19;;;14.10;97.90
19890;BME280;10107;51.198;6.824;2023-02-17T14:37:53;-21685.34;;;14.02;97.79
19890;BME280;10107;51.198;6.824;2023-02-17T14:41:54;-21682.44;;;13.91;97.95
19890;BME280;10107;51.198;6.824;2023-02-17T14:45:56;-21680.19;;;13.82;98.52
19890;BME280;10107;51.198;6.824;2023-02-17T14:49:59;-21677.56;;;13.72;99.05
19890;BME280;10107;51.198;6.824;2023-02-17T14:54:01;-21674.81;;;13.61;99.11
19890;BME280;10107;51.198;6.824;2023-02-17T14:58:03;-21673.47;;;13.56;99.51
19890;BME280;10107;51.198;6.824;2023-02-17T15:02:11;-21671.91;;;13.50;99.73
19890;BME280;10107;51.198;6.824;2023-02-17T15:06:17;-21670.59;;;13.45;99.94
19890;BME280;10107;51.198;6.824;2023-02-17T15:10:26;-21669.78;;;13.42;99.03
19890;BME280;10107;51.198;6.824;2023-02-17T15:14:28;-21668.59;;;13.37;99.60
19890;BME280;10107;51.198;6.824;2023-02-17T15:18:29;-21668.22;;;13.36;99.73
19890;BME280;10107;51.198;6.824;2023-02-17T15:22:32;-21665.97;;;13.27;99.93
19890;BME280;10107;51.198;6.824;2023-02-17T15:26:34;-21663.31;;;13.17;100.00
19890;BME280;10107;51.198;6.824;2023-02-17T15:30:36;-21660.94;;;13.07;100.00
19890;BME280;10107;51.198;6.824;2023-02-17T15:34:37;-21658.72;;;12.99;100.00
19890;BME280;10107;51.198;6.824;2023-02-17T15:38:41;-21656.59;;;12.91;100.00
19890;BME280;10107;51.198;6.824;2023-02-17T15:42:43;-21655.53;;;12.86;100.00
19890;BME280;10107;51.198;6.824;2023-02-17T15:46:47;-21653.56;;;12.79;100.00
19890;BME280;10107;51.198;6.824;2023-02-17T15:50:50;-21650.78;;;12.68;100.00
19890;BME280;10107;51.198;6.824;2023-02-17T15:54:53;-21648.53;;;12.59;100.00
19890;BME280;10107;51.198;6.824;2023-02-17T15:58:56;-21646.16;;;12.50;100.00
19890;BME280;10107;51.198;6.824;2023-02-17T16:02:58;-21644.59;;;12.44;100.00
19890;BME280;10107;51.198;6.824;2023-02-17T16:07:00;-21642.72;;;12.37;100.00
19890;BME280;10107;51.198;6.824;2023-02-17T16:11:03;-21641.94;;;12.34;100.00
19890;BME280;10107;51.198;6.824;2023-02-17T16:15:09;-21642.06;;;12.34;100.00
19890;BME280;10107;51.198;6.824;2023-02-17T16:19:11;-21641.81;;;12.33;100.00
19890;BME280;10107;51.198;6.824;2023-02-17T16:23:13;-21640.50;;;12.28;100.00
19890;BME280;10107;51.198;6.824;2023-02-17T16:27:16;-21640.34;;;12.27;100.00
19890;BME280;10107;51.198;6.824;2023-02-17T16:31:18;-21639.44;;;12.24;100.00
19890;BME280;10107;51.198;6.824;2023-02-17T16:35:21;-21637.72;;;12.17;100.00
19890;BME280;10107;51.198;6.824;2023-02-17T16:39:23;-21636.53;;;12.13;100.00
19890;BME280;10107;51.198;6.824;2023-02-17T16:43:27;-21635.34;;;12.08;100.00
19890;BME280;10107;51.198;6.824;2023-02-17T16:47:30;-21634.53;;;12.05;100.00
19890;BME280;10107;51.198;6.824;2023-02-17T16:51:31;-21632.56;;;11.97;100.00
19890;BME280;10107;51.198;6.824;2023-02-17T16:55:34;-21631.50;;;11.93;100.00
19890;BME280;10107;51.198;6.824;2023-02-17T16:59:38;-21631.25;;;11.92;100.00
19890;BME280;10107;51.198;6.824;2023-02-17T17:03:40;-21628.84;;;11.83;100.00
19890;BME280;10107;51.198;6.824;2023-02-17T17:07:42;-21626.34;;;11.73;100.00
19890;BME280;10107;51.198;6.824;2023-02-17T17:11:43;-21623.97;;;11.64;100.00
19890;BME280;10107;51.198;6.824;2023-02-17T17:15:47;-21623.16;;;11.61;100.00
19890;BME280;10107;51.198;6.824;2023-02-17T17:19:48;-21621.44;;;11.54;100.00
19890;BME280;10107;51.198;6.824;2023-02-17T17:23:50;-21620.66;;;11.51;100.00
19890;BME280;10107;51.198;6.824;2023-02-17T17:27:52;-21620.13;;;11.49;100.00
19890;BME280;10107;51.198;6.824;2023-02-17T17:31:55;-21619.59;;;11.47;100.00
19890;BME280;10107;51.198;6.824;2023-02-17T17:35:57;-21619.34;;;11.46;100.00
19890;BME280;10107;51.198;6.824;2023-02-17T17:39:59;-21618.41;;;11.42;100.00
19890;BME280;10107;51.198;6.824;2023-02-17T17:44:00;-21617.75;;;11.40;100.00
19890;BME280;10107;51.198;6.824;2023-02-17T17:48:04;-21616.81;;;11.36;100.00
19890;BME280;10107;51.198;6.824;2023-02-17T17:52:05;-21616.44;;;11.35;100.00
19890;BME280;10107;51.198;6.824;2023-02-17T17:56:12;-21615.91;;;11.33;100.00
19890;BME280;10107;51.198;6.824;2023-02-17T18:00:16;-21616.44;;;11.35;100.00
19890;BME280;10107;51.198;6.824;2023-02-17T18:04:19;-21616.69;;;11.36;100.00
19890;BME280;10107;51.198;6.824;2023-02-17T18:08:21;-21616.03;;;11.33;100.00
19890;BME280;10107;51.198;6.824;2023-02-17T18:12:23;-21615.91;;;11.33;100.00
19890;BME280;10107;51.198;6.824;2023-02-17T18:16:26;-21616.44;;;11.35;100.00
19890;BME280;10107;51.198;6.824;2023-02-17T18:20:30;-21616.28;;;11.34;100.00
19890;BME280;10107;51.198;6.824;2023-02-17T18:24:32;-21615.38;;;11.30;100.00
19890;BME280;10107;51.198;6.824;2023-02-17T18:28:33;-21614.84;;;11.28;100.00
19890;BME280;10107;51.198;6.824;2023-02-17T18:32:35;-21614.84;;;11.28;100.00
19890;BME280;10107;51.198;6.824;2023-02-17T18:36:38;-21614.31;;;11.26;100.00
19890;BME280;10107;51.198;6.824;2023-02-17T18:40:40;-21614.31;;;11.26;100.00
19890;BME280;10107;51.198;6.824;2023-02-17T18:44:42;-21614.19;;;11.26;100.00
19890;BME280;10107;51.198;6.824;2023-02-17T18:48:44;-21614.03;;;11.25;100.00
19890;BME280;10107;51.198;6.824;2023-02-17T18:52:47;-21613.78;;;11.24;100.00
19890;BME280;10107;51.198;6.824;2023-02-17T18:56:49;-21613.53;;;11.23;100.00
19890;BME280;10107;51.198;6.824;2023-02-17T19:00:50;-21614.19;;;11.26;100.00
19890;BME280;10107;51.198;6.824;2023-02-17T19:04:52;-21613.25;;;11.22;100.00
19890;BME280;10107;51.198;6.824;2023-02-17T19:08:56;-21613.25;;;11.22;100.00
19890;BME280;10107;51.198;6.824;2023-02-17T19:12:57;-21612.97;;;11.21;100.00
19890;BME280;10107;51.198;6.824;2023-02-17T19:16:59;-21611.94;;;11.17;100.00
19890;BME280;10107;51.198;6.824;2023-02-17T19:21:01;-21611.13;;;11.14;100.00
19890;BME280;10107;51.198;6.824;2023-02-17T19:25:05;-21611.66;;;11.16;100.00
19890;BME280;10107;51.198;6.824;2023-02-17T19:29:07;-21611.41;;;11.15;100.00
19890;BME280;10107;51.198;6.824;2023-02-17T19:33:09;-21611.41;;;11.15;100.00
19890;BME280;10107;51.198;6.824;2023-02-17T19:37:11;-21609.69;;;11.08;100.00
19890;BME280;10107;51.198;6.824;2023-02-17T19:41:15;-21608.75;;;11.05;100.00
19890;BME280;10107;51.198;6.824;2023-02-17T19:45:17;-21608.88;;;11.05;100.00
19890;BME280;10107;51.198;6.824;2023-02-17T19:49:19;-21608.75;;;11.05;100.00
19890;BME280;10107;51.198;6.824;2023-02-17T19:53:21;-21609.28;;;11.07;100.00
19890;BME280;10107;51.198;6.824;2023-02-17T19:57:23;-21608.09;;;11.02;100.00
19890;BME280;10107;51.198;6.824;2023-02-17T20:01:27;-21607.44;;;11.00;100.00
19890;BME280;10107;51.198;6.824;2023-02-17T20:05:29;-21606.50;;;10.96;100.00
19890;BME280;10107;51.198;6.824;2023-02-17T20:09:31;-21605.56;;;10.93;100.00
19890;BME280;10107;51.198;6.824;2023-02-17T20:13:35;-21606.09;;;10.95;100.00
19890;BME280;10107;51.198;6.824;2023-02-17T20:17:37;-21605.31;;;10.92;100.00
19890;BME280;10107;51.198;6.824;2023-02-17T20:21:40;-21604.25;;;10.87;100.00
19890;BME280;10107;51.198;6.824;2023-02-17T20:25:43;-21604.00;;;10.86;100.00
19890;BME280;10107;51.198;6.824;2023-02-17T20:29:46;-21602.94;;;10.82;100.00
19890;BME280;10107;51.198;6.824;2023-02-17T20:33:49;-21602.94;;;10.82;100.00
19890;BME280;10107;51.198;6.824;2023-02-17T20:37:50;-21602.41;;;10.80;100.00
19890;BME280;10107;51.198;6.824;2023-02-17T20:41:53;-21601.72;;;10.78;100.00
19890;BME280;10107;51.198;6.824;2023-02-17T20:45:56;-21601.72;;;10.78;100.00
19890;BME280;10107;51.198;6.824;2023-02-17T20:49:58;-21600.81;;;10.74;100.00
19890;BME280;10107;51.198;6.824;2023-02-17T20:54:00;-21601.06;;;10.75;100.00
19890;BME280;10107;51.198;6.824;2023-02-17T20:58:02;-21600.69;;;10.74;100.00
19890;BME280;10107;51.198;6.824;2023-02-17T21:02:06;-21600.28;;;10.72;100.00
19890;BME280;10107;51.198;6.824;2023-02-17T21:06:17;-21600.28;;;10.72;100.00
19890;BME280;10107;51.198;6.824;2023-02-17T21:10:23;-21599.75;;;10.70;100.00
19890;BME280;10107;51.198;6.824;2023-02-17T21:14:27;-21599.88;;;10.70;100.00